logo dgac
Domingo 21 de Abril del 2024
Buscar por aerodromo o helipuerto
Ingrese nombre de aeródromo, localidad o designador OACI:
TAF: TAF SCAR 210430Z 2106/2206 35004KT CAVOK TN17/2110Z TX23/2118Z BECMG 2107/2109 10004KT BECMG 2114/2116 21014KT BECMG 2122/2200 21004KT
TAF del 21/04/2024 a las 04:30 UTC
Para mayor información visite www.meteochile.gob.cl
Período de validez: desde el 21 a las 06:00 UTC hasta el 22 a las 06:00 UTC
Viento: dirección 350 grados, velocidad 4 nudos
Visibilidad: 10 km o más,
    sin nubes bajo los 5.000 pies o bajo del MSA (Mínimo de Seguridad del Aeródromo),
    sin cumulonimbus, y sin fenómenos de tiempo significativo en el aeródromo o alrededores
Temperatura mínima: 17ºC el 21 a las 10:00 UTC
Temperatura máxima: 23ºC el 21 a las 18:00 UTC
Se espera un cambio entre las 07:00 UTC del 21 y las 09:00 UTC del 21, :
Viento: dirección 100 grados, velocidad 4 nudos
Se espera un cambio entre las 14:00 UTC del 21 y las 16:00 UTC del 21, :
Viento: dirección 210 grados, velocidad 14 nudos
Se espera un cambio entre las 22:00 UTC del 21 y las 00:00 UTC del 22, :
Viento: dirección 210 grados, velocidad 4 nudos